Time;durP1;ratioP1;P1;durP2;ratioP2;P2;SDS_P1;SDS_P2;PMS_P1;PMS_P2;Temp;Humidity;BMP_temperature;BMP_pressure;BME280_temperature;BME280_humidity;BME280_pressure;Samples;Min_cycle;Max_cycle;Signal;HPM_P1;HPM_P2
2023/01/15 00:01:02;;;;;;;;;;;;;;;10.27;97.22;97983.25;5052855;28;19946;-75
2023/01/15 00:03:27;;;;;;;;;;;;;;;10.16;97.69;97986.31;5051005;28;20397;-75
2023/01/15 00:05:52;;;;;;;;;;;;;;;10.19;97.59;97999.03;5052728;28;20007;-75
2023/01/15 00:08:18;;;;;;;;;;;;;;;10.13;98.34;98003.66;5070253;28;19916;-75
2023/01/15 00:10:43;;;;;;;;;;;;;;;10.50;94.00;98017.38;5069835;28;19917;-75
2023/01/15 00:13:08;;;;;;;;;;;;;;;9.76;96.84;98005.28;5069670;28;19913;-76
2023/01/15 00:15:33;;;;;;;;;;;;;;;9.50;95.25;98034.72;5069504;28;19927;-76
2023/01/15 00:17:59;;;;;;;;;;;;;;;8.26;88.92;98030.31;5070481;28;20451;-76
2023/01/15 00:20:24;;;;;;;;;;;;;;;7.86;78.86;98085.63;5068072;28;19916;-76
2023/01/15 00:22:49;;;;;;;;;;;;;;;7.81;65.46;98144.72;5051613;28;19973;-75
2023/01/15 00:27:58;;;;;;;;;;;;;;;8.01;63.64;98276.53;5069400;28;19927;-76
2023/01/15 00:30:24;;;;;;;;;;;;;;;7.94;65.39;98329.75;5052319;28;19916;-76
2023/01/15 00:32:49;;;;;;;;;;;;;;;7.72;68.85;98320.16;5050721;28;19920;-76
2023/01/15 00:35:18;;;;;;;;;;;;;;;7.42;72.70;98316.81;5070476;28;20338;-75
2023/01/15 00:37:43;;;;;;;;;;;;;;;7.49;72.78;98338.81;5069113;28;19920;-76
2023/01/15 00:40:09;;;;;;;;;;;;;;;7.33;74.38;98345.28;5069449;28;19969;-76
2023/01/15 00:42:34;;;;;;;;;;;;;;;7.37;74.98;98358.81;5069131;28;19970;-76
2023/01/15 00:45:07;;;;;;;;;;;;;;;7.30;76.89;98358.19;5043818;28;19920;-76
2023/01/15 00:47:32;;;;;;;;;;;;;;;7.45;76.71;98367.13;5052763;28;19971;-75
2023/01/15 00:49:57;;;;;;;;;;;;;;;7.17;78.57;98367.09;5068370;28;20015;-76
2023/01/15 00:52:22;;;;;;;;;;;;;;;7.38;77.35;98384.41;5069481;28;20112;-75
2023/01/15 00:54:48;;;;;;;;;;;;;;;7.05;79.35;98383.66;5056132;28;20020;-76
2023/01/15 00:57:14;;;;;;;;;;;;;;;7.04;79.00;98381.94;5055888;28;19959;-76
2023/01/15 00:59:39;;;;;;;;;;;;;;;6.98;78.15;98392.34;5074065;28;19920;-76
2023/01/15 01:02:04;;;;;;;;;;;;;;;6.85;79.96;98402.94;5072499;28;19940;-76
2023/01/15 01:04:29;;;;;;;;;;;;;;;6.64;79.66;98404.34;5054768;28;20298;-76
2023/01/15 01:06:55;;;;;;;;;;;;;;;6.85;79.64;98443.03;5073705;28;19920;-76
2023/01/15 01:09:20;;;;;;;;;;;;;;;7.11;80.15;98453.41;5054854;28;20286;-75
2023/01/15 01:11:45;;;;;;;;;;;;;;;7.08;83.05;98458.63;5056148;28;20007;-76
2023/01/15 01:14:10;;;;;;;;;;;;;;;7.41;85.03;98453.50;5054573;28;19956;-76
2023/01/15 01:16:37;;;;;;;;;;;;;;;7.18;87.08;98431.06;5055231;28;19928;-76
2023/01/15 01:19:07;;;;;;;;;;;;;;;7.04;90.69;98416.06;5054879;28;20310;-76
2023/01/15 01:21:33;;;;;;;;;;;;;;;7.08;92.25;98407.44;5055277;28;19916;-77
2023/01/15 01:23:58;;;;;;;;;;;;;;;7.02;91.77;98387.09;5047445;28;20319;-76
2023/01/15 01:26:24;;;;;;;;;;;;;;;6.99;92.65;98378.69;5053716;28;20526;-76
2023/01/15 01:28:50;;;;;;;;;;;;;;;7.47;92.47;98396.09;5055137;28;19931;-76
2023/01/15 01:31:16;;;;;;;;;;;;;;;7.45;94.65;98373.06;5073229;28;19927;-74
2023/01/15 01:33:41;;;;;;;;;;;;;;;7.62;94.52;98369.16;5072094;28;19999;-74
2023/01/15 01:36:06;;;;;;;;;;;;;;;7.91;93.33;98365.72;5071626;28;19927;-74
2023/01/15 01:38:31;;;;;;;;;;;;;;;7.41;97.20;98325.41;5072241;28;19916;-74
2023/01/15 01:40:57;;;;;;;;;;;;;;;7.27;95.62;98323.22;5055382;28;19920;-74
2023/01/15 01:43:23;;;;;;;;;;;;;;;8.09;91.07;98361.72;5054784;28;19988;-74
2023/01/15 01:45:49;;;;;;;;;;;;;;;7.16;94.65;98327.00;5072393;28;20370;-75
2023/01/15 01:48:14;;;;;;;;;;;;;;;7.68;92.36;98340.81;5073334;28;19916;-75
2023/01/15 01:50:39;;;;;;;;;;;;;;;8.22;94.62;98334.81;5072168;28;19966;-74
2023/01/15 01:53:06;;;;;;;;;;;;;;;7.86;100.00;98291.53;5054933;28;20003;-75
2023/01/15 01:55:33;;;;;;;;;;;;;;;8.32;99.30;98264.31;5072757;28;20532;-76
2023/01/15 01:57:58;;;;;;;;;;;;;;;8.67;100.00;98218.66;5054628;28;20414;-75
2023/01/15 02:00:24;;;;;;;;;;;;;;;8.65;100.00;98163.97;5054700;28;19959;-74
2023/01/15 02:02:49;;;;;;;;;;;;;;;8.48;100.00;98117.56;5054273;28;20337;-74
2023/01/15 02:05:16;;;;;;;;;;;;;;;8.98;100.00;98094.22;5052704;28;19919;-75
2023/01/15 02:07:42;;;;;;;;;;;;;;;8.89;100.00;98050.94;5046681;28;19931;-75
2023/01/15 02:10:12;;;;;;;;;;;;;;;8.71;100.00;97999.47;5064905;28;20509;-75
2023/01/15 02:12:37;;;;;;;;;;;;;;;8.77;100.00;97963.25;5066007;28;19970;-74
2023/01/15 02:15:02;;;;;;;;;;;;;;;8.95;100.00;97930.84;5048983;28;20779;-74
2023/01/15 02:17:46;;;;;;;;;;;;;;;9.53;100.00;97894.03;5065857;28;20400;-74
2023/01/15 02:20:11;;;;;;;;;;;;;;;9.75;100.00;97870.75;5046803;28;20015;-75
2023/01/15 02:22:55;;;;;;;;;;;;;;;9.57;100.00;97833.91;5064498;28;19920;-75
2023/01/15 02:25:35;;;;;;;;;;;;;;;9.86;100.00;97816.28;5065725;28;19912;-75
2023/01/15 02:28:03;;;;;;;;;;;;;;;10.19;100.00;97800.09;5065147;28;20500;-74
2023/01/15 02:30:29;;;;;;;;;;;;;;;9.32;100.00;97758.88;5047737;28;19922;-75
2023/01/15 02:32:56;;;;;;;;;;;;;;;9.66;100.00;97764.97;5047210;28;19924;-74
2023/01/15 02:35:26;;;;;;;;;;;;;;;9.92;100.00;97756.84;5080576;27;19954;-75
2023/01/15 02:37:52;;;;;;;;;;;;;;;10.09;100.00;97750.03;5038087;28;19916;-75
2023/01/15 02:40:18;;;;;;;;;;;;;;;10.09;100.00;97735.41;5063829;28;19944;-76
2023/01/15 02:42:43;;;;;;;;;;;;;;;9.93;100.00;97703.66;5047267;28;20377;-74
2023/01/15 02:45:09;;;;;;;;;;;;;;;10.30;100.00;97702.63;5046919;28;19920;-75
2023/01/15 02:47:34;;;;;;;;;;;;;;;10.30;100.00;97696.66;5047577;28;20481;-74
2023/01/15 02:50:01;;;;;;;;;;;;;;;9.13;100.00;97669.00;5046796;28;19952;-75
2023/01/15 02:52:27;;;;;;;;;;;;;;;9.94;100.00;97687.31;5046810;28;20330;-75
2023/01/15 02:54:59;;;;;;;;;;;;;;;9.44;100.00;97670.91;5047550;28;19931;-75
2023/01/15 02:57:25;;;;;;;;;;;;;;;9.32;100.00;97659.50;5064451;28;20011;-74
2023/01/15 02:59:50;;;;;;;;;;;;;;;9.37;100.00;97664.41;5046937;28;19916;-75
2023/01/15 03:02:19;;;;;;;;;;;;;;;9.17;100.00;97653.38;5065682;28;20064;-75
2023/01/15 03:04:47;;;;;;;;;;;;;;;8.61;100.00;97649.16;5047090;28;20617;-75
2023/01/15 03:07:21;;;;;;;;;;;;;;;8.90;100.00;97664.94;5066264;28;19931;-74
2023/01/15 03:09:47;;;;;;;;;;;;;;;9.41;100.00;97661.63;5063914;28;20393;-75
2023/01/15 03:12:12;;;;;;;;;;;;;;;8.88;100.00;97635.94;5046148;28;19920;-74
2023/01/15 03:14:40;;;;;;;;;;;;;;;8.56;100.00;97636.53;5064181;28;20301;-76
2023/01/15 03:17:29;;;;;;;;;;;;;;;8.58;100.00;97657.00;5047543;28;19924;-75
2023/01/15 03:20:01;;;;;;;;;;;;;;;8.72;100.00;97672.59;5055130;28;19920;-75
2023/01/15 03:22:30;;;;;;;;;;;;;;;9.06;100.00;97668.47;5044943;28;19922;-74
2023/01/15 03:25:12;;;;;;;;;;;;;;;8.71;100.00;97665.81;5065991;28;19938;-75
2023/01/15 03:27:37;;;;;;;;;;;;;;;8.57;100.00;97647.63;5044584;28;19927;-75
2023/01/15 03:30:05;;;;;;;;;;;;;;;8.55;100.00;97647.72;5063925;28;19916;-75
2023/01/15 03:32:30;;;;;;;;;;;;;;;8.94;100.00;97648.47;5063560;28;19923;-75
2023/01/15 03:34:56;;;;;;;;;;;;;;;8.86;100.00;97642.88;5047206;28;19924;-74
2023/01/15 03:37:22;;;;;;;;;;;;;;;8.69;100.00;97635.94;5045795;28;19981;-75
2023/01/15 03:39:47;;;;;;;;;;;;;;;9.07;100.00;97636.72;5036782;28;19916;-75
2023/01/15 03:42:13;;;;;;;;;;;;;;;9.11;100.00;97627.97;5045034;28;20578;-76
2023/01/15 03:44:40;;;;;;;;;;;;;;;9.90;100.00;97622.34;5063137;28;20007;-75
2023/01/15 03:47:09;;;;;;;;;;;;;;;9.74;100.00;97601.75;5046962;28;19924;-75
2023/01/15 03:49:40;;;;;;;;;;;;;;;9.28;100.00;97598.06;5047366;28;19924;-75
2023/01/15 03:52:05;;;;;;;;;;;;;;;9.99;100.00;97611.59;5053236;28;20007;-75
2023/01/15 03:54:49;;;;;;;;;;;;;;;9.02;100.00;97597.59;5071314;28;20014;-75
2023/01/15 03:57:44;;;;;;;;;;;;;;;9.66;100.00;97605.59;5069397;28;19973;-75
2023/01/15 04:00:13;;;;;;;;;;;;;;;9.50;100.00;97593.53;5005515;28;19917;-75
2023/01/15 04:02:38;;;;;;;;;;;;;;;8.87;100.00;97577.78;5052975;28;19947;-75
2023/01/15 04:05:03;;;;;;;;;;;;;;;9.22;100.00;97588.94;5051326;28;19923;-75
2023/01/15 04:07:29;;;;;;;;;;;;;;;8.72;100.00;97577.63;5052144;28;20576;-75
2023/01/15 04:09:54;;;;;;;;;;;;;;;8.42;100.00;97585.03;5050184;28;19916;-75
2023/01/15 04:12:19;;;;;;;;;;;;;;;8.24;100.00;97578.13;5052314;28;20048;-74
2023/01/15 04:14:44;;;;;;;;;;;;;;;8.83;100.00;97599.41;5069212;28;20401;-75
2023/01/15 04:17:09;;;;;;;;;;;;;;;8.50;100.00;97605.19;5070287;28;19931;-75
2023/01/15 04:19:35;;;;;;;;;;;;;;;9.21;100.00;97618.94;5069981;28;19920;-75
2023/01/15 04:22:00;;;;;;;;;;;;;;;9.34;100.00;97608.88;5069287;28;20849;-75
2023/01/15 04:24:25;;;;;;;;;;;;;;;9.11;100.00;97586.88;5070281;28;20520;-75
2023/01/15 04:26:50;;;;;;;;;;;;;;;9.17;100.00;97573.75;5050862;28;19977;-75
2023/01/15 04:29:16;;;;;;;;;;;;;;;9.45;100.00;97572.38;5069087;28;20497;-75
2023/01/15 04:31:41;;;;;;;;;;;;;;;9.47;100.00;97565.41;5070683;28;20440;-75
2023/01/15 04:34:06;;;;;;;;;;;;;;;10.08;100.00;97568.28;5068533;28;19916;-75
2023/01/15 04:36:34;;;;;;;;;;;;;;;9.48;100.00;97541.38;5052153;28;19930;-76
2023/01/15 04:39:00;;;;;;;;;;;;;;;9.37;100.00;97548.78;5069954;28;20337;-76
2023/01/15 04:44:09;;;;;;;;;;;;;;;8.70;100.00;97561.47;5054285;28;19927;-76
2023/01/15 04:46:38;;;;;;;;;;;;;;;8.86;100.00;97601.81;5069233;28;20390;-75
2023/01/15 04:49:04;;;;;;;;;;;;;;;8.89;100.00;97606.78;5050813;28;19925;-74
2023/01/15 04:51:29;;;;;;;;;;;;;;;8.90;100.00;97619.56;5051009;28;20558;-75
2023/01/15 04:53:54;;;;;;;;;;;;;;;9.21;100.00;97613.78;5070560;28;20010;-74
2023/01/15 04:56:20;;;;;;;;;;;;;;;8.73;100.00;97581.84;5069851;28;19932;-75
2023/01/15 04:58:45;;;;;;;;;;;;;;;8.79;100.00;97604.66;5050282;28;19947;-74
2023/01/15 05:01:13;;;;;;;;;;;;;;;8.97;100.00;97604.69;5068930;28;20740;-75
2023/01/15 05:03:39;;;;;;;;;;;;;;;9.17;100.00;97589.16;5067763;28;19959;-74
2023/01/15 05:06:04;;;;;;;;;;;;;;;8.30;100.00;97586.41;5051321;28;20413;-75
2023/01/15 05:08:29;;;;;;;;;;;;;;;8.52;100.00;97603.38;5070369;28;19920;-75
2023/01/15 05:10:54;;;;;;;;;;;;;;;8.59;100.00;97609.88;5051656;28;19988;-75
2023/01/15 05:13:20;;;;;;;;;;;;;;;8.56;100.00;97605.75;5068408;28;20353;-75
2023/01/15 05:15:47;;;;;;;;;;;;;;;8.63;100.00;97608.03;5068712;28;20350;-75
2023/01/15 05:18:13;;;;;;;;;;;;;;;8.83;100.00;97609.66;5069459;28;20374;-75
2023/01/15 05:20:39;;;;;;;;;;;;;;;8.37;100.00;97605.72;5052539;28;20437;-74
2023/01/15 05:23:04;;;;;;;;;;;;;;;8.62;100.00;97609.78;5069894;28;19916;-74
2023/01/15 05:25:30;;;;;;;;;;;;;;;8.55;100.00;97608.38;5050130;28;20340;-75
2023/01/15 05:27:55;;;;;;;;;;;;;;;8.56;100.00;97620.31;5068753;28;19916;-74
2023/01/15 05:30:20;;;;;;;;;;;;;;;8.21;100.00;97617.59;5069573;28;19923;-74
2023/01/15 05:32:45;;;;;;;;;;;;;;;8.56;100.00;97633.13;5069571;28;19920;-74
2023/01/15 05:35:10;;;;;;;;;;;;;;;8.35;100.00;97628.06;5069553;28;19961;-74
2023/01/15 05:37:36;;;;;;;;;;;;;;;8.44;100.00;97625.97;5068888;28;19917;-75
2023/01/15 05:40:01;;;;;;;;;;;;;;;8.66;100.00;97647.19;5069803;28;19924;-74
2023/01/15 05:42:26;;;;;;;;;;;;;;;8.17;100.00;97621.19;5073678;28;19985;-75
2023/01/15 05:44:51;;;;;;;;;;;;;;;8.24;100.00;97625.13;5055246;28;19927;-75
2023/01/15 05:47:17;;;;;;;;;;;;;;;7.93;100.00;97616.22;5072017;28;20871;-75
2023/01/15 05:49:42;;;;;;;;;;;;;;;8.18;100.00;97631.34;5055496;28;20067;-75
2023/01/15 05:52:07;;;;;;;;;;;;;;;8.01;100.00;97623.59;5072388;28;19917;-75
2023/01/15 05:54:33;;;;;;;;;;;;;;;8.38;100.00;97632.22;5054209;28;19924;-75
2023/01/15 05:56:58;;;;;;;;;;;;;;;9.18;100.00;97629.34;5054310;28;20031;-75
2023/01/15 05:59:24;;;;;;;;;;;;;;;9.04;100.00;97606.06;5054323;28;19916;-75
2023/01/15 06:01:50;;;;;;;;;;;;;;;8.71;100.00;97570.84;5055250;28;20015;-75
2023/01/15 06:04:16;;;;;;;;;;;;;;;8.36;100.00;97570.69;5053046;28;19969;-76
2023/01/15 06:06:42;;;;;;;;;;;;;;;8.19;100.00;97555.28;5072354;28;19924;-75
2023/01/15 06:09:07;;;;;;;;;;;;;;;8.17;100.00;97567.31;5053888;28;19920;-74
2023/01/15 06:11:32;;;;;;;;;;;;;;;7.94;100.00;97566.63;5054649;28;20378;-75
2023/01/15 06:13:58;;;;;;;;;;;;;;;8.45;100.00;97574.63;5072284;28;19916;-75
2023/01/15 06:16:23;;;;;;;;;;;;;;;8.28;100.00;97575.38;5071296;28;19927;-74
2023/01/15 06:18:48;;;;;;;;;;;;;;;8.55;100.00;97588.69;5072053;28;19991;-75
2023/01/15 06:21:13;;;;;;;;;;;;;;;9.06;100.00;97585.47;5071872;28;19961;-75
2023/01/15 06:23:39;;;;;;;;;;;;;;;8.42;100.00;97571.38;5053737;28;19965;-75
2023/01/15 06:26:05;;;;;;;;;;;;;;;8.33;100.00;97581.13;5054940;28;19920;-75
2023/01/15 06:28:31;;;;;;;;;;;;;;;8.88;100.00;97594.88;5070555;28;19927;-75
2023/01/15 06:30:56;;;;;;;;;;;;;;;8.53;100.00;97594.78;5054031;28;20508;-75
2023/01/15 06:33:21;;;;;;;;;;;;;;;8.93;100.00;97613.44;5071750;28;19927;-74
2023/01/15 06:35:46;;;;;;;;;;;;;;;8.62;100.00;97604.63;5052334;28;19931;-75
2023/01/15 06:38:12;;;;;;;;;;;;;;;8.83;100.00;97596.84;5071230;28;19920;-74
2023/01/15 06:40:37;;;;;;;;;;;;;;;9.23;100.00;97594.91;5070553;28;19916;-74
2023/01/15 06:48:30;;;;;;;;;;;;;;;8.17;100.00;97583.53;5056214;28;19927;-74
2023/01/15 06:50:55;;;;;;;;;;;;;;;8.46;100.00;97601.94;5044611;28;19924;-75
2023/01/15 06:53:20;;;;;;;;;;;;;;;8.21;100.00;97615.03;5053227;28;19916;-74
2023/01/15 06:55:46;;;;;;;;;;;;;;;8.60;100.00;97619.28;5070878;28;20050;-74
2023/01/15 06:58:11;;;;;;;;;;;;;;;7.78;100.00;97601.53;5052729;28;20034;-75
2023/01/15 07:00:37;;;;;;;;;;;;;;;8.54;100.00;97627.25;5052258;28;20007;-74
2023/01/15 07:03:02;;;;;;;;;;;;;;;8.65;100.00;97637.84;5071466;28;19926;-74
2023/01/15 07:05:28;;;;;;;;;;;;;;;8.70;100.00;97623.06;5052774;28;19981;-74
2023/01/15 07:07:53;;;;;;;;;;;;;;;8.17;100.00;97608.34;5053476;28;20478;-74
2023/01/15 07:10:18;;;;;;;;;;;;;;;8.50;100.00;97615.44;5071633;28;19919;-74
2023/01/15 07:12:43;;;;;;;;;;;;;;;8.43;100.00;97626.91;5052261;28;19916;-74
2023/01/15 07:15:09;;;;;;;;;;;;;;;8.53;100.00;97628.13;5070895;28;20065;-75
2023/01/15 07:17:34;;;;;;;;;;;;;;;8.59;100.00;97631.25;5070733;28;20003;-74
2023/01/15 07:19:59;;;;;;;;;;;;;;;8.82;100.00;97629.34;5054787;28;20290;-74
2023/01/15 07:22:25;;;;;;;;;;;;;;;8.40;100.00;97614.19;5071117;28;20023;-74
2023/01/15 07:24:50;;;;;;;;;;;;;;;8.73;100.00;97629.78;5051860;28;19927;-74
2023/01/15 07:27:15;;;;;;;;;;;;;;;8.74;100.00;97611.75;5069278;28;19927;-75
2023/01/15 07:29:40;;;;;;;;;;;;;;;8.91;100.00;97610.94;5070064;28;20019;-75
2023/01/15 07:32:06;;;;;;;;;;;;;;;8.24;100.00;97578.97;5045379;28;20553;-75
2023/01/15 07:34:31;;;;;;;;;;;;;;;8.32;100.00;97592.25;5070488;28;20801;-76
2023/01/15 07:36:56;;;;;;;;;;;;;;;8.64;100.00;97602.81;5071422;28;21017;-75
2023/01/15 07:39:21;;;;;;;;;;;;;;;8.65;100.00;97601.91;5044158;28;20413;-75
2023/01/15 07:50:02;;;;;;;;;;;;;;;9.07;100.00;97569.94;5055800;28;20664;-75
2023/01/15 07:52:28;;;;;;;;;;;;;;;8.64;100.00;97555.78;5051130;28;19916;-75
2023/01/15 07:54:53;;;;;;;;;;;;;;;8.87;100.00;97560.69;5052803;28;19920;-75
2023/01/15 07:57:19;;;;;;;;;;;;;;;8.84;100.00;97555.66;5051174;28;19969;-75
2023/01/15 07:59:44;;;;;;;;;;;;;;;8.86;100.00;97571.00;5052534;28;20413;-76
2023/01/15 08:02:09;;;;;;;;;;;;;;;8.10;100.00;97556.50;5051956;28;19924;-75
2023/01/15 08:04:35;;;;;;;;;;;;;;;9.07;100.00;97613.63;5051501;28;19919;-75
2023/01/15 08:07:00;;;;;;;;;;;;;;;8.47;100.00;97584.81;5052109;28;19923;-75
2023/01/15 08:09:26;;;;;;;;;;;;;;;8.82;100.00;97602.84;5051272;28;19928;-75
2023/01/15 08:17:19;;;;;;;;;;;;;;;8.37;100.00;97600.59;5070810;28;19981;-75
2023/01/15 08:19:44;;;;;;;;;;;;;;;8.51;100.00;97619.69;5069618;28;19920;-75
2023/01/15 08:22:10;;;;;;;;;;;;;;;8.78;100.00;97615.00;5051427;28;19924;-75
2023/01/15 08:24:35;;;;;;;;;;;;;;;8.28;100.00;97613.84;5070405;28;19924;-75
2023/01/15 08:27:01;;;;;;;;;;;;;;;8.15;100.00;97618.66;5069820;28;20920;-75
2023/01/15 08:29:26;;;;;;;;;;;;;;;8.53;100.00;97635.81;5069557;28;19920;-76
2023/01/15 08:31:51;;;;;;;;;;;;;;;8.21;100.00;97625.28;5053756;28;19920;-75
2023/01/15 08:34:18;;;;;;;;;;;;;;;8.02;100.00;97620.09;5069741;28;19923;-75
2023/01/15 08:36:43;;;;;;;;;;;;;;;8.38;100.00;97635.59;5070171;28;19924;-75
2023/01/15 08:39:08;;;;;;;;;;;;;;;8.17;100.00;97629.69;5070989;28;20264;-76
2023/01/15 08:41:34;;;;;;;;;;;;;;;8.03;100.00;97641.44;5052992;28;20048;-77
2023/01/15 08:43:59;;;;;;;;;;;;;;;8.06;100.00;97636.19;5069002;28;19961;-75
2023/01/15 08:46:24;;;;;;;;;;;;;;;8.14;100.00;97629.84;5051575;28;19920;-75
2023/01/15 08:48:49;;;;;;;;;;;;;;;8.32;100.00;97635.84;5052772;28;20561;-75
2023/01/15 08:51:15;;;;;;;;;;;;;;;9.29;100.00;97640.84;5071986;28;20359;-75
2023/01/15 08:53:40;;;;;;;;;;;;;;;8.42;100.00;97615.00;5052130;28;19927;-75
2023/01/15 08:56:15;;;;;;;;;;;;;;;8.94;100.00;97610.81;5052157;28;19929;-75
2023/01/15 08:58:41;;;;;;;;;;;;;;;8.44;100.00;97600.31;5050329;28;20614;-75
2023/01/15 09:01:07;;;;;;;;;;;;;;;8.46;100.00;97608.78;5051235;28;19969;-75
2023/01/15 09:03:32;;;;;;;;;;;;;;;8.69;100.00;97608.56;5050939;28;19920;-75
2023/01/15 09:05:58;;;;;;;;;;;;;;;8.22;100.00;97593.59;5067262;28;19916;-75
2023/01/15 09:08:23;;;;;;;;;;;;;;;8.68;100.00;97606.91;5068399;28;19920;-75
2023/01/15 09:10:49;;;;;;;;;;;;;;;8.72;100.00;97598.16;5051616;28;20016;-75
2023/01/15 09:13:14;;;;;;;;;;;;;;;8.23;100.00;97582.41;5052654;28;19928;-75
2023/01/15 09:15:39;;;;;;;;;;;;;;;8.47;100.00;97584.81;5072456;28;19928;-75
2023/01/15 09:18:04;;;;;;;;;;;;;;;8.98;100.00;97580.66;5055537;28;19929;-75
2023/01/15 09:20:30;;;;;;;;;;;;;;;8.65;100.00;97578.81;5073313;28;19926;-75
2023/01/15 09:22:55;;;;;;;;;;;;;;;9.05;100.00;97576.06;5055623;28;20023;-77
2023/01/15 09:25:22;;;;;;;;;;;;;;;8.72;100.00;97575.06;5055498;28;19920;-75
2023/01/15 09:27:48;;;;;;;;;;;;;;;8.81;100.00;97581.50;5055836;28;19924;-75
2023/01/15 09:30:18;;;;;;;;;;;;;;;8.79;100.00;97586.69;5055672;28;19916;-75
2023/01/15 09:32:43;;;;;;;;;;;;;;;8.95;100.00;97597.06;5054178;28;20002;-75
2023/01/15 09:35:09;;;;;;;;;;;;;;;8.36;100.00;97586.09;5054206;28;19951;-75
2023/01/15 09:37:34;;;;;;;;;;;;;;;8.38;100.00;97612.50;5046146;28;19912;-74
2023/01/15 09:40:01;;;;;;;;;;;;;;;8.40;100.00;97625.31;5072026;28;20382;-75
2023/01/15 09:42:33;;;;;;;;;;;;;;;8.56;100.00;97639.09;5072300;28;19924;-74
2023/01/15 09:45:04;;;;;;;;;;;;;;;8.73;100.00;97638.31;5072891;28;19924;-74
2023/01/15 09:47:30;;;;;;;;;;;;;;;8.70;100.00;97622.22;5072452;28;20566;-74
2023/01/15 09:50:14;;;;;;;;;;;;;;;8.53;100.00;97607.59;5055323;28;20026;-75
2023/01/15 09:52:51;;;;;;;;;;;;;;;8.96;100.00;97614.16;5072203;28;20057;-75
2023/01/15 09:55:25;;;;;;;;;;;;;;;8.19;100.00;97591.19;5054322;28;19924;-75
2023/01/15 09:57:51;;;;;;;;;;;;;;;8.19;100.00;97596.31;5073564;28;19985;-74
2023/01/15 10:00:20;;;;;;;;;;;;;;;8.22;100.00;97583.34;5053949;28;19920;-75
2023/01/15 10:02:50;;;;;;;;;;;;;;;7.81;100.00;97575.75;5055034;28;19923;-75
2023/01/15 10:05:15;;;;;;;;;;;;;;;7.80;100.00;97589.47;5053861;28;19949;-74
2023/01/15 10:07:42;;;;;;;;;;;;;;;8.08;100.00;97571.13;5072419;28;20701;-75
2023/01/15 10:10:13;;;;;;;;;;;;;;;8.36;100.00;97567.31;5054260;28;19923;-74
2023/01/15 10:12:39;;;;;;;;;;;;;;;8.21;100.00;97543.22;5053388;28;19917;-75
2023/01/15 10:15:10;;;;;;;;;;;;;;;8.12;100.00;97539.34;5054078;28;19967;-74
2023/01/15 10:17:42;;;;;;;;;;;;;;;8.08;100.00;97550.63;5072025;28;20097;-74
2023/01/15 10:20:28;;;;;;;;;;;;;;;8.36;100.00;97524.53;5072507;28;20375;-74
2023/01/15 10:23:04;;;;;;;;;;;;;;;8.75;100.00;97508.16;5053437;28;19927;-74
2023/01/15 10:25:30;;;;;;;;;;;;;;;8.16;100.00;97489.56;5051269;28;19921;-75
2023/01/15 10:27:56;;;;;;;;;;;;;;;7.98;100.00;97487.84;5053453;28;19926;-74
2023/01/15 10:30:39;;;;;;;;;;;;;;;8.62;100.00;97486.59;5053070;28;20481;-75
2023/01/15 10:33:10;;;;;;;;;;;;;;;8.11;100.00;97480.41;5054958;28;19931;-74
2023/01/15 10:35:54;;;;;;;;;;;;;;;8.01;100.00;97484.31;5052950;28;19920;-74
2023/01/15 10:38:28;;;;;;;;;;;;;;;8.84;100.00;97481.22;5072862;28;19927;-75
2023/01/15 10:40:53;;;;;;;;;;;;;;;8.58;100.00;97485.06;5070712;28;20013;-76
2023/01/15 10:43:22;;;;;;;;;;;;;;;8.59;100.00;97472.16;5070881;28;19981;-74
2023/01/15 10:45:55;;;;;;;;;;;;;;;8.84;100.00;97470.13;5070897;28;19974;-75
2023/01/15 10:48:26;;;;;;;;;;;;;;;8.87;100.00;97467.41;5054453;28;20040;-75
2023/01/15 10:50:51;;;;;;;;;;;;;;;8.81;100.00;97472.88;5054616;28;19916;-77
2023/01/15 10:53:36;;;;;;;;;;;;;;;9.18;100.00;97459.81;5053513;28;19931;-76
2023/01/15 10:56:13;;;;;;;;;;;;;;;8.69;100.00;97467.44;5070467;28;20019;-76
2023/01/15 10:58:44;;;;;;;;;;;;;;;8.90;100.00;97485.25;5053454;28;19993;-75
2023/01/15 11:01:14;;;;;;;;;;;;;;;8.84;100.00;97482.97;5072691;28;19960;-75
2023/01/15 11:03:40;;;;;;;;;;;;;;;8.86;100.00;97478.59;5053444;28;19920;-76
2023/01/15 11:06:07;;;;;;;;;;;;;;;7.86;100.00;97476.41;5053124;28;19943;-76
2023/01/15 11:08:32;;;;;;;;;;;;;;;8.88;100.00;97481.91;5053402;28;19955;-76
2023/01/15 11:10:58;;;;;;;;;;;;;;;8.69;100.00;97472.56;5052484;28;19967;-76
2023/01/15 11:22:05;;;;;;;;;;;;;;;8.95;100.00;97449.88;5073036;28;19969;-76
2023/01/15 11:24:30;;;;;;;;;;;;;;;8.29;100.00;97461.59;5053785;28;20011;-76
2023/01/15 11:26:56;;;;;;;;;;;;;;;8.90;100.00;97441.59;5052689;28;20062;-75
2023/01/15 11:29:28;;;;;;;;;;;;;;;8.66;100.00;97441.91;5070737;28;19950;-77
2023/01/15 11:31:54;;;;;;;;;;;;;;;8.57;100.00;97432.91;5052788;28;19916;-77
2023/01/15 11:34:20;;;;;;;;;;;;;;;8.82;100.00;97436.81;5052994;28;20345;-76
2023/01/15 11:36:45;;;;;;;;;;;;;;;8.51;100.00;97437.53;5052068;28;20350;-75
2023/01/15 11:39:25;;;;;;;;;;;;;;;8.73;100.00;97439.84;5051212;28;19916;-76
2023/01/15 11:52:59;;;;;;;;;;;;;;;9.40;100.00;97445.88;5054926;28;19926;-75
2023/01/15 11:55:25;;;;;;;;;;;;;;;8.85;100.00;97429.00;5052548;28;19920;-75
2023/01/15 11:57:50;;;;;;;;;;;;;;;8.66;100.00;97429.06;5049762;28;19927;-77
2023/01/15 12:00:23;;;;;;;;;;;;;;;8.55;100.00;97433.88;5068544;28;19925;-76
2023/01/15 12:02:49;;;;;;;;;;;;;;;9.33;100.00;97432.53;5050738;28;19927;-76
2023/01/15 12:05:15;;;;;;;;;;;;;;;9.25;100.00;97421.81;5040636;28;19920;-75
2023/01/15 12:07:40;;;;;;;;;;;;;;;8.99;100.00;97418.03;5050703;28;19981;-75
2023/01/15 12:10:12;;;;;;;;;;;;;;;8.59;100.00;97437.97;5051994;28;20402;-75
2023/01/15 12:12:56;;;;;;;;;;;;;;;8.36;100.00;97439.06;5051241;28;19923;-76
2023/01/15 12:15:21;;;;;;;;;;;;;;;8.53;100.00;97430.56;5067846;28;19947;-75
2023/01/15 12:18:02;;;;;;;;;;;;;;;9.59;100.00;97449.13;5068107;28;19920;-76
2023/01/15 12:20:33;;;;;;;;;;;;;;;8.66;100.00;97426.50;5067532;28;19927;-75
2023/01/15 12:23:04;;;;;;;;;;;;;;;8.57;100.00;97427.78;5068149;28;19924;-76
2023/01/15 12:25:32;;;;;;;;;;;;;;;8.61;100.00;97418.19;5067478;28;19920;-75
2023/01/15 12:28:00;;;;;;;;;;;;;;;9.27;100.00;97427.69;5065372;28;20321;-75
2023/01/15 12:30:31;;;;;;;;;;;;;;;9.53;100.00;97412.66;5068223;28;19916;-74
2023/01/15 12:33:16;;;;;;;;;;;;;;;8.91;100.00;97415.00;5068529;28;20068;-75
2023/01/15 12:35:43;;;;;;;;;;;;;;;9.31;100.00;97400.94;5040251;28;19930;-74
2023/01/15 12:38:08;;;;;;;;;;;;;;;9.00;100.00;97404.25;5048370;28;19920;-75
2023/01/15 12:40:46;;;;;;;;;;;;;;;9.03;100.00;97403.28;5067929;28;19928;-74
2023/01/15 12:45:58;;;;;;;;;;;;;;;8.75;100.00;97397.81;5053037;28;19947;-75
2023/01/15 12:48:27;;;;;;;;;;;;;;;9.12;100.00;97413.94;5049517;28;20291;-75
2023/01/15 12:50:53;;;;;;;;;;;;;;;8.57;100.00;97409.81;5072201;28;19942;-75
2023/01/15 12:53:22;;;;;;;;;;;;;;;8.47;100.00;97415.50;5054601;28;20967;-75
2023/01/15 12:56:07;;;;;;;;;;;;;;;8.53;100.00;97416.03;5070200;28;19947;-74
2023/01/15 12:58:36;;;;;;;;;;;;;;;8.65;100.00;97417.16;5058934;28;19916;-75
2023/01/15 13:01:18;;;;;;;;;;;;;;;8.64;100.00;97420.59;5070942;28;19921;-75
2023/01/15 13:03:53;;;;;;;;;;;;;;;9.54;100.00;97420.28;5054399;28;19920;-75
2023/01/15 13:06:18;;;;;;;;;;;;;;;9.44;100.00;97401.09;5052415;28;19920;-75
2023/01/15 13:08:49;;;;;;;;;;;;;;;9.02;100.00;97402.44;5054547;28;19920;-75
2023/01/15 13:11:14;;;;;;;;;;;;;;;9.11;100.00;97401.97;5054378;28;19920;-75
2023/01/15 13:13:40;;;;;;;;;;;;;;;8.93;100.00;97405.50;5051777;28;19927;-75
2023/01/15 13:16:08;;;;;;;;;;;;;;;8.75;100.00;97400.38;5052667;28;19936;-75
2023/01/15 13:18:54;;;;;;;;;;;;;;;8.42;100.00;97402.06;5071669;28;19966;-74
2023/01/15 13:21:20;;;;;;;;;;;;;;;8.57;100.00;97401.28;5059061;28;19927;-75
2023/01/15 13:23:48;;;;;;;;;;;;;;;8.82;100.00;97411.16;5053789;28;19917;-75
2023/01/15 13:26:25;;;;;;;;;;;;;;;9.13;100.00;97415.56;5070357;28;19920;-75
2023/01/15 13:28:53;;;;;;;;;;;;;;;8.62;100.00;97412.19;5062145;28;19935;-75
2023/01/15 13:31:25;;;;;;;;;;;;;;;8.71;100.00;97411.72;5065917;28;19967;-75
2023/01/15 13:33:51;;;;;;;;;;;;;;;9.56;100.00;97403.03;5067597;28;20427;-75
2023/01/15 13:36:27;;;;;;;;;;;;;;;8.61;100.00;97407.94;5046178;28;19929;-74